createdAt,value
2023-01-07T00:01:48.674Z,6.95
2023-01-07T00:04:16.401Z,7.90
2023-01-07T00:06:44.959Z,6.93
2023-01-07T00:09:14.829Z,5.25
2023-01-07T00:11:41.819Z,7.75
2023-01-07T00:14:11.111Z,6.85
2023-01-07T00:16:39.169Z,6.10
2023-01-07T00:19:07.457Z,6.63
2023-01-07T00:21:34.319Z,5.63
2023-01-07T00:24:04.146Z,10.23
2023-01-07T00:26:33.285Z,8.05
2023-01-07T00:29:00.475Z,6.28
2023-01-07T00:31:30.319Z,9.43
2023-01-07T00:33:57.254Z,6.60
2023-01-07T00:36:26.646Z,8.15
2023-01-07T00:39:15.550Z,4.72
2023-01-07T00:42:02.638Z,6.07
2023-01-07T00:44:30.253Z,4.32
2023-01-07T00:46:58.394Z,5.03
2023-01-07T00:49:25.307Z,4.25
2023-01-07T00:51:52.423Z,4.60
2023-01-07T00:54:19.150Z,3.25
2023-01-07T00:56:45.867Z,3.20
2023-01-07T00:59:12.793Z,3.40
2023-01-07T01:01:39.581Z,3.72
2023-01-07T01:04:08.417Z,3.80
2023-01-07T01:06:35.350Z,6.68
2023-01-07T01:09:02.384Z,4.95
2023-01-07T01:11:29.173Z,6.13
2023-01-07T01:13:55.842Z,7.93
2023-01-07T01:16:24.188Z,9.73
2023-01-07T01:18:51.413Z,11.98
2023-01-07T01:21:19.098Z,9.52
2023-01-07T01:23:45.864Z,9.15
2023-01-07T01:26:15.885Z,8.50
2023-01-07T01:28:43.811Z,10.93
2023-01-07T01:31:10.931Z,14.43
2023-01-07T01:33:37.594Z,13.93
2023-01-07T01:36:06.077Z,9.50
2023-01-07T01:38:32.850Z,7.60
2023-01-07T01:40:59.903Z,6.95
2023-01-07T01:43:37.406Z,9.60
2023-01-07T01:46:15.198Z,7.40
2023-01-07T01:48:49.428Z,6.70
2023-01-07T01:53:43.599Z,3.75
2023-01-07T01:56:20.453Z,5.03
2023-01-07T01:58:53.732Z,4.90
2023-01-07T02:01:20.554Z,5.27
2023-01-07T02:03:48.118Z,5.55
2023-01-07T02:06:22.003Z,3.90
2023-01-07T02:08:48.787Z,3.95
2023-01-07T02:11:34.412Z,3.90
2023-01-07T02:14:12.993Z,4.10
2023-01-07T02:17:05.127Z,5.97
2023-01-07T02:20:09.147Z,4.82
2023-01-07T02:23:13.516Z,5.30
2023-01-07T02:26:06.346Z,4.60
2023-01-07T02:29:10.526Z,5.82
2023-01-07T02:32:24.021Z,6.30
2023-01-07T02:35:16.656Z,6.65
2023-01-07T02:37:58.339Z,6.70
2023-01-07T02:40:36.031Z,4.75
2023-01-07T02:43:46.145Z,6.85
2023-01-07T02:46:51.409Z,4.95
2023-01-07T02:51:47.089Z,6.75
2023-01-07T02:54:20.978Z,5.20
2023-01-07T02:59:47.273Z,8.88
2023-01-07T03:02:45.032Z,9.10
2023-01-07T03:05:47.336Z,9.45
2023-01-07T03:08:40.298Z,6.25
2023-01-07T03:11:10.232Z,8.35
2023-01-07T03:13:42.497Z,6.00
2023-01-07T03:16:19.710Z,6.32
2023-01-07T03:18:56.173Z,4.03
2023-01-07T03:21:24.591Z,11.27
2023-01-07T03:23:53.367Z,3.33
2023-01-07T03:26:24.015Z,4.63
2023-01-07T03:28:51.783Z,4.15
2023-01-07T03:31:19.040Z,2.92
2023-01-07T03:34:15.182Z,4.03
2023-01-07T03:36:49.358Z,3.30
2023-01-07T03:39:16.592Z,3.75
2023-01-07T03:42:01.831Z,3.45
2023-01-07T03:44:28.535Z,2.97
2023-01-07T03:46:55.588Z,3.10
2023-01-07T03:49:22.282Z,7.97
2023-01-07T03:51:49.661Z,4.80
2023-01-07T03:54:16.888Z,4.80
2023-01-07T03:56:43.575Z,3.17
2023-01-07T03:59:10.253Z,2.88
2023-01-07T04:01:37.186Z,2.70
2023-01-07T04:04:04.229Z,2.90
2023-01-07T04:06:30.983Z,2.88
2023-01-07T04:08:57.624Z,3.45
2023-01-07T04:11:24.341Z,3.67
2023-01-07T04:13:51.065Z,2.60
2023-01-07T04:16:17.902Z,2.55
2023-01-07T04:18:44.858Z,2.38
2023-01-07T04:21:11.655Z,2.42
2023-01-07T04:23:38.296Z,3.17
2023-01-07T04:26:05.521Z,4.82
2023-01-07T04:28:32.218Z,3.38
2023-01-07T04:34:15.670Z,5.40
2023-01-07T04:36:42.399Z,4.90
2023-01-07T04:39:09.069Z,3.60
2023-01-07T04:41:35.730Z,2.67
2023-01-07T04:44:02.516Z,2.60
2023-01-07T04:46:29.164Z,2.28
2023-01-07T04:48:55.874Z,2.22
2023-01-07T04:51:22.693Z,2.05
2023-01-07T04:53:49.351Z,2.17
2023-01-07T04:56:16.173Z,1.75
2023-01-07T04:58:43.971Z,2.83
2023-01-07T05:01:11.910Z,2.83
2023-01-07T05:03:38.678Z,1.80
2023-01-07T05:06:05.667Z,1.83
2023-01-07T05:08:32.449Z,2.50
2023-01-07T05:11:00.223Z,1.65
2023-01-07T05:13:26.911Z,3.15
2023-01-07T05:15:53.978Z,4.18
2023-01-07T05:18:20.718Z,1.73
2023-01-07T05:20:50.296Z,2.03
2023-01-07T05:23:16.949Z,2.22
2023-01-07T05:25:43.585Z,1.88
2023-01-07T05:28:12.259Z,3.10
2023-01-07T05:30:39.776Z,1.80
2023-01-07T05:33:07.504Z,1.52
2023-01-07T05:35:35.147Z,1.92
2023-01-07T05:38:01.791Z,3.55
2023-01-07T05:40:28.638Z,1.60
2023-01-07T05:42:55.553Z,3.67
2023-01-07T05:45:22.209Z,1.30
2023-01-07T05:47:49.769Z,1.20
2023-01-07T05:50:16.438Z,1.33
2023-01-07T05:52:43.085Z,1.67
2023-01-07T05:55:09.777Z,1.30
2023-01-07T05:57:36.459Z,1.30
2023-01-07T06:00:04.423Z,1.92
2023-01-07T06:02:31.485Z,1.85
2023-01-07T06:04:58.134Z,2.55
2023-01-07T06:07:24.787Z,2.63
2023-01-07T06:09:51.436Z,1.63
2023-01-07T06:12:18.310Z,1.70
2023-01-07T06:14:45.217Z,1.50
2023-01-07T06:17:11.880Z,2.08
2023-01-07T06:19:39.170Z,1.25
2023-01-07T06:22:05.959Z,2.05
2023-01-07T06:24:32.612Z,1.30
2023-01-07T06:26:59.200Z,1.23
2023-01-07T06:29:25.940Z,1.30
2023-01-07T06:31:52.675Z,1.65
2023-01-07T06:34:19.341Z,1.88
2023-01-07T06:36:46.370Z,1.38
2023-01-07T06:39:13.211Z,1.67
2023-01-07T06:41:39.799Z,1.45
2023-01-07T06:44:06.556Z,1.20
2023-01-07T06:46:33.320Z,1.20
2023-01-07T06:49:00.175Z,1.10
2023-01-07T06:51:26.756Z,1.65
2023-01-07T06:53:53.458Z,1.10
2023-01-07T06:56:20.103Z,1.83
2023-01-07T06:58:46.879Z,1.02
2023-01-07T07:01:13.663Z,1.02
2023-01-07T07:03:40.381Z,1.10
2023-01-07T07:06:07.476Z,2.03
2023-01-07T07:08:34.098Z,1.55
2023-01-07T07:11:00.953Z,1.58
2023-01-07T07:13:28.266Z,1.52
2023-01-07T07:15:54.956Z,1.35
2023-01-07T07:18:21.764Z,1.75
2023-01-07T07:20:49.568Z,1.67
2023-01-07T07:23:16.687Z,2.28
2023-01-07T07:25:43.688Z,1.38
2023-01-07T07:28:10.879Z,2.03
2023-01-07T07:30:45.478Z,1.15
2023-01-07T07:33:15.303Z,1.27
2023-01-07T07:35:42.379Z,1.25
2023-01-07T07:38:09.455Z,3.63
2023-01-07T07:40:36.299Z,1.20
2023-01-07T07:43:11.715Z,1.55
2023-01-07T07:45:40.516Z,1.73
2023-01-07T07:48:11.004Z,3.80
2023-01-07T07:50:37.882Z,2.42
2023-01-07T07:53:05.232Z,3.60
2023-01-07T07:55:32.028Z,3.50
2023-01-07T07:57:58.733Z,3.60
2023-01-07T08:00:25.596Z,4.28
2023-01-07T08:02:52.628Z,5.53
2023-01-07T08:05:19.351Z,4.40
2023-01-07T08:07:45.956Z,2.70
2023-01-07T08:10:12.584Z,2.35
2023-01-07T08:12:39.785Z,3.20
2023-01-07T08:15:07.451Z,3.28
2023-01-07T08:17:34.467Z,3.10
2023-01-07T08:20:01.115Z,1.63
2023-01-07T08:22:27.825Z,2.17
2023-01-07T08:24:54.646Z,4.07
2023-01-07T08:27:21.380Z,1.55
2023-01-07T08:29:47.975Z,1.63
2023-01-07T08:32:15.128Z,3.88
2023-01-07T08:34:41.754Z,1.92
2023-01-07T08:37:08.616Z,1.35
2023-01-07T08:39:35.231Z,1.20
2023-01-07T08:42:02.590Z,1.08
2023-01-07T08:44:29.287Z,0.93
2023-01-07T08:46:56.075Z,2.25
2023-01-07T08:49:22.971Z,1.00
2023-01-07T08:51:49.693Z,2.03
2023-01-07T08:54:16.610Z,0.93
2023-01-07T08:56:43.456Z,1.33
2023-01-07T08:59:10.101Z,2.03
2023-01-07T09:01:37.133Z,2.42
2023-01-07T09:04:03.947Z,3.67
2023-01-07T09:06:30.793Z,1.70
2023-01-07T09:08:57.865Z,1.75
2023-01-07T09:11:24.615Z,1.90
2023-01-07T09:13:51.512Z,2.45
2023-01-07T09:16:18.315Z,2.70
2023-01-07T09:18:45.654Z,2.00
2023-01-07T09:21:12.326Z,3.60
2023-01-07T09:23:40.610Z,4.30
2023-01-07T09:26:08.027Z,4.57
2023-01-07T09:28:34.883Z,7.28
2023-01-07T09:31:02.265Z,7.35
2023-01-07T09:33:29.270Z,5.10
2023-01-07T09:35:56.223Z,5.25
2023-01-07T09:38:22.839Z,4.13
2023-01-07T09:40:49.691Z,2.70
2023-01-07T09:44:00.388Z,3.78
2023-01-07T09:46:17.126Z,4.68
2023-01-07T09:48:51.795Z,2.08
2023-01-07T09:51:29.260Z,3.17
2023-01-07T09:53:59.849Z,1.58
2023-01-07T09:56:31.642Z,1.90
2023-01-07T09:59:00.993Z,3.70
2023-01-07T10:01:46.496Z,1.50
2023-01-07T10:04:22.909Z,1.50
2023-01-07T10:07:13.386Z,1.50
2023-01-07T10:10:08.165Z,1.65
2023-01-07T10:13:04.586Z,1.40
2023-01-07T10:15:58.003Z,1.50
2023-01-07T10:19:03.819Z,2.45
2023-01-07T10:21:39.316Z,2.25
2023-01-07T10:24:12.875Z,2.35
2023-01-07T10:26:41.900Z,1.80
2023-01-07T10:29:14.787Z,6.85
2023-01-07T10:31:42.401Z,4.28
2023-01-07T10:34:26.269Z,11.00
2023-01-07T10:37:06.796Z,3.10
2023-01-07T10:39:46.807Z,4.15
2023-01-07T10:42:19.094Z,3.17
2023-01-07T10:44:57.823Z,4.35
2023-01-07T10:47:56.930Z,2.58
2023-01-07T10:50:44.848Z,2.08
2023-01-07T10:53:39.377Z,1.65
2023-01-07T10:56:17.628Z,1.50
2023-01-07T10:58:45.800Z,3.08
2023-01-07T11:01:23.711Z,2.60
2023-01-07T11:03:56.076Z,1.75
2023-01-07T11:06:44.943Z,1.60
2023-01-07T11:09:19.379Z,2.67
2023-01-07T11:11:46.629Z,2.20
2023-01-07T11:14:21.452Z,1.77
2023-01-07T11:16:56.860Z,1.80
2023-01-07T11:19:43.092Z,3.00
2023-01-07T11:22:31.704Z,1.70
2023-01-07T11:24:59.920Z,2.65
2023-01-07T11:27:30.696Z,1.58
2023-01-07T11:30:00.985Z,2.08
2023-01-07T11:32:32.467Z,1.58
2023-01-07T11:35:01.752Z,2.67
2023-01-07T11:37:42.882Z,1.80
2023-01-07T11:40:35.438Z,3.00
2023-01-07T11:43:36.400Z,6.35
2023-01-07T11:46:20.226Z,5.65
2023-01-07T11:48:50.456Z,3.00
2023-01-07T11:51:19.025Z,3.08
2023-01-07T11:53:58.204Z,3.60
2023-01-07T11:56:28.230Z,2.22
2023-01-07T11:59:15.130Z,2.60
2023-01-07T12:01:53.737Z,2.40
2023-01-07T12:04:36.589Z,3.17
2023-01-07T12:07:12.459Z,2.28
2023-01-07T12:09:41.797Z,2.00
2023-01-07T12:12:35.005Z,1.08
2023-01-07T12:15:19.919Z,1.55
2023-01-07T12:20:51.325Z,1.42
2023-01-07T12:23:51.411Z,2.33
2023-01-07T12:26:27.474Z,2.45
2023-01-07T12:29:27.354Z,1.05
2023-01-07T12:32:36.698Z,1.08
2023-01-07T12:35:16.472Z,1.80
2023-01-07T12:37:54.073Z,1.08
2023-01-07T12:40:31.420Z,1.48
2023-01-07T12:43:21.953Z,0.93
2023-01-07T12:45:53.421Z,0.93
2023-01-07T12:48:47.190Z,0.85
2023-01-07T12:51:21.268Z,0.82
2023-01-07T12:53:52.194Z,1.23
2023-01-07T12:56:30.025Z,1.10
2023-01-07T12:59:04.875Z,2.38
2023-01-07T13:01:42.699Z,1.60
2023-01-07T13:04:39.982Z,0.77
2023-01-07T13:07:41.088Z,0.85
2023-01-07T13:10:21.609Z,1.73
2023-01-07T13:12:49.580Z,1.50
2023-01-07T13:15:36.327Z,1.63
2023-01-07T13:18:16.541Z,1.27
2023-01-07T13:21:24.611Z,2.10
2023-01-07T13:24:20.138Z,1.55
2023-01-07T13:26:58.101Z,1.13
2023-01-07T13:29:58.823Z,4.63
2023-01-07T13:32:54.482Z,1.60
2023-01-07T13:35:48.101Z,2.88
2023-01-07T13:38:30.978Z,1.40
2023-01-07T13:41:31.978Z,1.30
2023-01-07T13:44:15.027Z,2.65
2023-01-07T13:46:45.049Z,2.92
2023-01-07T13:49:30.141Z,2.03
2023-01-07T13:52:20.760Z,2.47
2023-01-07T13:55:24.489Z,2.67
2023-01-07T13:57:51.205Z,3.70
2023-01-07T14:00:38.260Z,1.85
2023-01-07T14:03:05.624Z,2.10
2023-01-07T14:05:32.832Z,2.42
2023-01-07T14:08:01.550Z,3.10
2023-01-07T14:10:34.504Z,2.20
2023-01-07T14:13:12.590Z,1.70
2023-01-07T14:15:58.457Z,1.58
2023-01-07T14:19:04.623Z,1.85
2023-01-07T14:21:57.403Z,2.17
2023-01-07T14:25:05.941Z,1.92
2023-01-07T14:28:04.611Z,2.85
2023-01-07T14:30:36.453Z,5.05
2023-01-07T14:33:08.180Z,3.92
2023-01-07T14:35:40.500Z,2.33
2023-01-07T14:38:55.755Z,2.33
2023-01-07T14:41:24.532Z,1.63
2023-01-07T14:44:03.392Z,1.60
2023-01-07T14:46:49.424Z,2.13
2023-01-07T14:49:30.551Z,3.00
2023-01-07T14:52:10.493Z,2.30
2023-01-07T14:55:23.026Z,2.80
2023-01-07T14:58:19.894Z,5.85
2023-01-07T15:01:31.460Z,7.90
2023-01-07T15:04:42.929Z,3.88
2023-01-07T15:07:16.565Z,2.50
2023-01-07T15:10:05.695Z,3.35
2023-01-07T15:12:54.707Z,2.92
2023-01-07T15:15:43.942Z,2.20
2023-01-07T15:18:11.980Z,3.08
2023-01-07T15:21:12.031Z,3.20
2023-01-07T15:27:44.199Z,2.58
2023-01-07T15:30:49.560Z,2.35
2023-01-07T15:36:05.817Z,5.55
2023-01-07T15:38:50.338Z,4.90
2023-01-07T15:41:24.020Z,3.95
2023-01-07T15:43:51.325Z,4.40
2023-01-07T15:46:18.300Z,3.00
2023-01-07T15:48:45.294Z,2.80
2023-01-07T15:51:18.805Z,2.58
2023-01-07T15:53:54.358Z,2.38
2023-01-07T15:56:22.463Z,3.13
2023-01-07T15:58:49.241Z,4.75
2023-01-07T16:01:18.736Z,4.43
2023-01-07T16:03:47.012Z,1.95
2023-01-07T16:06:47.126Z,2.15
2023-01-07T16:09:19.317Z,2.58
2023-01-07T16:11:46.397Z,2.83
2023-01-07T16:14:22.453Z,2.42
2023-01-07T16:17:04.354Z,4.65
2023-01-07T16:19:35.097Z,2.25
2023-01-07T16:22:03.487Z,3.58
2023-01-07T16:24:30.145Z,5.22
2023-01-07T16:27:05.309Z,3.05
2023-01-07T16:29:37.261Z,4.93
2023-01-07T16:32:07.257Z,6.47
2023-01-07T16:34:54.196Z,5.05
2023-01-07T16:37:20.959Z,3.30
2023-01-07T16:39:51.515Z,4.07
2023-01-07T16:42:21.095Z,3.13
2023-01-07T16:44:59.337Z,2.70
2023-01-07T16:47:27.901Z,3.05
2023-01-07T16:50:40.237Z,3.28
2023-01-07T16:53:21.926Z,3.03
2023-01-07T16:56:13.273Z,4.05
2023-01-07T16:58:43.194Z,3.85
2023-01-07T17:01:10.718Z,2.83
2023-01-07T17:03:54.865Z,4.90
2023-01-07T17:06:38.508Z,3.72
2023-01-07T17:09:05.479Z,3.75
2023-01-07T17:11:36.418Z,2.30
2023-01-07T17:14:03.187Z,3.28
2023-01-07T17:16:33.812Z,3.17
2023-01-07T17:19:26.328Z,3.65
2023-01-07T17:21:54.847Z,2.30
2023-01-07T17:24:28.741Z,2.40
2023-01-07T17:26:57.726Z,2.28
2023-01-07T17:29:30.361Z,2.63
2023-01-07T17:31:58.273Z,2.83
2023-01-07T17:34:25.326Z,2.67
2023-01-07T17:36:52.805Z,3.35
2023-01-07T17:39:19.645Z,3.28
2023-01-07T17:42:05.125Z,3.80
2023-01-07T17:44:32.880Z,4.55
2023-01-07T17:46:59.678Z,2.58
2023-01-07T17:49:27.304Z,2.47
2023-01-07T17:51:54.883Z,3.17
2023-01-07T17:54:25.870Z,2.58
2023-01-07T17:56:53.424Z,1.80
2023-01-07T17:59:22.572Z,2.22
2023-01-07T18:01:51.187Z,2.10
2023-01-07T18:04:18.372Z,2.10
2023-01-07T18:06:45.680Z,1.70
2023-01-07T18:09:13.947Z,1.70
2023-01-07T18:12:03.165Z,2.80
2023-01-07T18:14:30.209Z,2.88
2023-01-07T18:16:57.211Z,2.13
2023-01-07T18:19:24.112Z,1.80
2023-01-07T18:21:51.038Z,2.03
2023-01-07T18:24:21.569Z,1.65
2023-01-07T18:26:49.149Z,1.98
2023-01-07T18:29:16.926Z,2.33
2023-01-07T18:31:44.648Z,4.43
2023-01-07T18:34:13.954Z,2.03
2023-01-07T18:36:45.761Z,2.15
2023-01-07T18:39:19.620Z,2.60
2023-01-07T18:41:48.919Z,2.08
2023-01-07T18:44:16.776Z,1.88
2023-01-07T18:46:43.516Z,2.17
2023-01-07T18:49:11.548Z,4.30
2023-01-07T18:51:38.676Z,2.10
2023-01-07T18:54:07.273Z,2.25
2023-01-07T18:56:37.953Z,2.92
2023-01-07T18:59:05.807Z,2.47
2023-01-07T19:01:32.874Z,2.45
2023-01-07T19:03:59.941Z,2.35
2023-01-07T19:06:29.479Z,3.50
2023-01-07T19:08:57.175Z,4.15
2023-01-07T19:11:24.733Z,3.17
2023-01-07T19:13:51.370Z,3.78
2023-01-07T19:16:18.005Z,3.00
2023-01-07T19:18:46.521Z,2.95
2023-01-07T19:21:13.499Z,3.85
2023-01-07T19:23:40.582Z,3.95
2023-01-07T19:26:08.909Z,2.95
2023-01-07T19:28:36.470Z,3.03
2023-01-07T19:31:07.382Z,2.78
2023-01-07T19:33:34.942Z,2.28
2023-01-07T19:36:10.527Z,2.40
2023-01-07T19:38:41.818Z,3.63
2023-01-07T19:41:14.422Z,2.85
2023-01-07T19:43:41.696Z,3.08
2023-01-07T19:46:09.684Z,5.32
2023-01-07T19:48:36.373Z,3.38
2023-01-07T19:51:06.190Z,3.83
2023-01-07T19:53:34.178Z,3.90
2023-01-07T19:56:09.324Z,3.10
2023-01-07T19:58:37.561Z,5.50
2023-01-07T20:01:19.766Z,2.90
2023-01-07T20:03:47.122Z,4.00
2023-01-07T20:06:16.071Z,4.90
2023-01-07T20:08:43.009Z,4.57
2023-01-07T20:11:10.568Z,6.05
2023-01-07T20:13:38.556Z,4.57
2023-01-07T20:16:14.164Z,6.05
2023-01-07T20:18:42.904Z,5.97
2023-01-07T20:21:11.641Z,5.07
2023-01-07T20:23:40.781Z,4.35
2023-01-07T20:26:11.980Z,5.90
2023-01-07T20:28:39.016Z,5.90
2023-01-07T20:31:13.329Z,5.57
2023-01-07T20:33:41.212Z,5.13
2023-01-07T20:36:11.403Z,4.65
2023-01-07T20:38:39.292Z,4.63
2023-01-07T20:41:07.365Z,5.75
2023-01-07T20:43:35.542Z,5.88
2023-01-07T20:46:04.545Z,6.30
2023-01-07T20:48:32.023Z,4.85
2023-01-07T20:51:00.588Z,6.15
2023-01-07T20:53:28.910Z,5.53
2023-01-07T20:55:57.444Z,6.28
2023-01-07T20:58:24.061Z,6.55
2023-01-07T21:00:51.163Z,7.80
2023-01-07T21:03:18.013Z,6.32
2023-01-07T21:05:46.309Z,6.38
2023-01-07T21:08:13.347Z,6.95
2023-01-07T21:10:40.366Z,6.80
2023-01-07T21:13:07.588Z,8.85
2023-01-07T21:15:36.556Z,5.53
2023-01-07T21:18:03.760Z,7.03
2023-01-07T21:20:31.351Z,6.47
2023-01-07T21:22:58.007Z,7.47
2023-01-07T21:25:24.607Z,6.55
2023-01-07T21:27:51.467Z,7.00
2023-01-07T21:30:18.652Z,31.98
2023-01-07T21:32:45.615Z,29.02
2023-01-07T21:35:12.476Z,47.65
2023-01-07T21:37:39.420Z,7.57
2023-01-07T21:40:08.771Z,21.27
2023-01-07T21:42:36.773Z,26.27
2023-01-07T21:45:05.293Z,10.90
2023-01-07T21:47:32.941Z,12.15
2023-01-07T21:49:59.743Z,12.35
2023-01-07T21:52:26.333Z,35.90
2023-01-07T21:54:53.191Z,25.65
2023-01-07T21:57:20.061Z,72.32
2023-01-07T21:59:46.840Z,28.25
2023-01-07T22:02:14.124Z,21.23
2023-01-07T22:04:41.140Z,12.70
2023-01-07T22:07:18.218Z,9.27
2023-01-07T22:09:45.531Z,17.63
2023-01-07T22:12:12.680Z,15.85
2023-01-07T22:14:39.408Z,11.70
2023-01-07T22:17:07.302Z,12.45
2023-01-07T22:19:34.190Z,35.00
2023-01-07T22:22:01.740Z,10.07
2023-01-07T22:24:28.584Z,10.32
2023-01-07T22:26:55.486Z,11.00
2023-01-07T22:29:22.349Z,19.73
2023-01-07T22:31:52.842Z,14.55
2023-01-07T22:34:19.638Z,16.40
2023-01-07T22:36:50.030Z,14.93
2023-01-07T22:39:40.648Z,7.63
2023-01-07T22:42:20.055Z,6.65
2023-01-07T22:44:52.603Z,10.05
2023-01-07T22:47:24.780Z,7.20
2023-01-07T22:49:52.567Z,7.72
2023-01-07T22:52:20.636Z,7.30
2023-01-07T22:54:47.300Z,10.30
2023-01-07T22:57:14.184Z,14.55
2023-01-07T22:59:40.734Z,10.20
2023-01-07T23:02:08.450Z,12.30
2023-01-07T23:04:35.572Z,16.00
2023-01-07T23:07:02.734Z,8.10
2023-01-07T23:09:29.452Z,5.78
2023-01-07T23:11:59.610Z,6.85
2023-01-07T23:14:27.819Z,7.88
2023-01-07T23:16:55.467Z,17.50
2023-01-07T23:19:22.822Z,11.27
2023-01-07T23:21:53.230Z,6.70
2023-01-07T23:24:21.294Z,8.43
2023-01-07T23:26:50.159Z,14.43
2023-01-07T23:29:17.652Z,11.27
2023-01-07T23:31:44.580Z,9.30
2023-01-07T23:34:11.808Z,9.07
2023-01-07T23:36:39.258Z,8.73
2023-01-07T23:39:06.744Z,7.07
2023-01-07T23:41:33.490Z,7.53
2023-01-07T23:44:00.185Z,5.82
2023-01-07T23:46:27.016Z,7.63
2023-01-07T23:48:53.955Z,5.10
2023-01-07T23:51:21.351Z,5.43
2023-01-07T23:53:48.184Z,5.47
2023-01-07T23:56:18.807Z,5.05
2023-01-07T23:58:46.082Z,7.50
